Time;durP1;ratioP1;P1;durP2;ratioP2;P2;SDS_P1;SDS_P2;PMS_P1;PMS_P2;Temp;Humidity;BMP_temperature;BMP_pressure;BME280_temperature;BME280_humidity;BME280_pressure;Samples;Min_cycle;Max_cycle;Signal;HPM_P1;HPM_P2
2022/08/19 00:00:08;;;;;;;9.15;5.00;;;18.50;89.20;;;;;;5019104;28;20129;-73
2022/08/19 00:02:35;;;;;;;9.45;5.47;;;18.50;89.50;;;;;;5023269;28;20041;-71
2022/08/19 00:05:01;;;;;;;8.07;5.20;;;18.50;89.40;;;;;;5020963;28;20563;-72
2022/08/19 00:07:26;;;;;;;8.20;5.00;;;18.50;89.40;;;;;;5024213;28;20109;-71
2022/08/19 00:09:52;;;;;;;12.00;4.80;;;18.50;89.70;;;;;;5032402;28;20033;-74
2022/08/19 00:12:17;;;;;;;7.72;5.00;;;18.50;89.70;;;;;;5035821;28;20026;-71
2022/08/19 00:14:43;;;;;;;8.30;4.75;;;18.50;89.80;;;;;;5037729;28;20053;-71
2022/08/19 00:17:09;;;;;;;7.10;4.80;;;18.40;89.90;;;;;;5027264;28;20384;-72
2022/08/19 00:19:36;;;;;;;6.03;4.43;;;18.40;89.90;;;;;;5031364;28;20791;-74
2022/08/19 00:22:03;;;;;;;7.82;4.07;;;18.50;90.00;;;;;;5026836;28;20368;-71
2022/08/19 00:24:28;;;;;;;9.70;4.45;;;18.40;89.80;;;;;;5022945;28;20022;-71
2022/08/19 00:26:56;;;;;;;7.95;4.55;;;18.40;90.00;;;;;;5030113;28;20470;-71
2022/08/19 00:29:22;;;;;;;7.85;4.32;;;18.40;90.00;;;;;;5031605;28;20030;-71
2022/08/19 00:31:50;;;;;;;8.30;4.32;;;18.50;90.00;;;;;;5022527;28;20024;-71
2022/08/19 00:34:15;;;;;;;7.40;3.92;;;18.40;89.90;;;;;;5029260;28;20107;-71
2022/08/19 00:36:42;;;;;;;7.13;4.10;;;18.30;90.10;;;;;;5027713;28;20026;-71
2022/08/19 00:39:08;;;;;;;7.80;4.75;;;18.20;90.40;;;;;;5030703;28;20046;-72
2022/08/19 00:41:33;;;;;;;7.07;4.15;;;18.30;90.60;;;;;;5029729;28;20033;-71
2022/08/19 00:44:02;;;;;;;8.43;4.70;;;18.30;90.40;;;;;;5031698;28;20035;-71
2022/08/19 00:46:29;;;;;;;6.78;4.47;;;18.30;90.40;;;;;;5027077;28;20026;-71
2022/08/19 00:48:57;;;;;;;7.07;3.97;;;18.30;90.30;;;;;;5026658;28;20479;-71
2022/08/19 00:51:26;;;;;;;8.82;4.20;;;18.30;90.30;;;;;;5034408;28;20117;-71
2022/08/19 00:53:54;;;;;;;6.40;3.80;;;18.20;90.60;;;;;;5026601;28;20372;-71
2022/08/19 00:56:19;;;;;;;6.95;4.35;;;18.30;90.50;;;;;;5029375;28;20032;-71
2022/08/19 00:58:45;;;;;;;7.55;4.30;;;18.30;90.30;;;;;;5037605;28;20041;-72
2022/08/19 01:01:10;;;;;;;6.15;4.22;;;18.20;90.50;;;;;;5038814;28;20041;-72
2022/08/19 01:03:36;;;;;;;10.07;3.80;;;18.20;90.60;;;;;;5029877;28;20025;-72
2022/08/19 01:06:02;;;;;;;9.50;4.10;;;18.30;90.60;;;;;;5027911;28;20025;-72
2022/08/19 01:08:28;;;;;;;6.43;3.92;;;18.30;90.30;;;;;;5036444;28;20403;-72
2022/08/19 01:10:59;;;;;;;7.75;4.18;;;18.20;90.50;;;;;;5040036;28;20442;-72
2022/08/19 01:13:26;;;;;;;;;;;18.30;90.50;;;;;;5032868;28;20134;-71
2022/08/19 01:16:00;;;;;;;6.07;3.58;;;18.20;90.40;;;;;;5027016;28;19913;-73
2022/08/19 01:18:27;;;;;;;8.32;4.25;;;18.20;90.50;;;;;;5040805;28;20032;-71
2022/08/19 01:20:55;;;;;;;7.80;4.82;;;18.20;90.50;;;;;;5030566;28;20441;-71
2022/08/19 01:23:42;;;;;;;8.38;4.60;;;18.10;90.60;;;;;;5033334;28;20372;-71
2022/08/19 01:26:07;;;;;;;9.68;4.47;;;18.10;90.80;;;;;;5031305;28;20471;-73
2022/08/19 01:28:33;;;;;;;7.28;4.43;;;18.10;90.70;;;;;;5032859;28;20383;-71
2022/08/19 01:30:58;;;;;;;8.27;4.50;;;18.20;90.70;;;;;;5037063;28;20091;-71
2022/08/19 01:33:24;;;;;;;7.38;4.95;;;18.10;90.70;;;;;;5021464;28;20060;-74
2022/08/19 01:35:51;;;;;;;8.05;5.22;;;18.10;90.60;;;;;;5033621;28;20044;-72
2022/08/19 01:38:26;;;;;;;8.27;5.35;;;18.00;90.80;;;;;;5024461;28;20033;-71
2022/08/19 01:40:51;;;;;;;8.95;5.15;;;18.00;90.80;;;;;;5024550;28;20065;-72
2022/08/19 01:43:18;;;;;;;10.77;5.50;;;18.00;90.80;;;;;;5031116;28;20107;-72
2022/08/19 01:45:44;;;;;;;7.68;4.95;;;18.00;91.00;;;;;;5031539;28;20029;-72
2022/08/19 01:48:10;;;;;;;9.02;5.13;;;18.00;90.90;;;;;;5027465;28;20049;-73
2022/08/19 01:50:36;;;;;;;8.00;5.10;;;18.10;90.80;;;;;;5032735;28;20515;-73
2022/08/19 01:53:06;;;;;;;9.70;5.20;;;18.00;90.90;;;;;;5023948;28;20049;-72
2022/08/19 01:55:31;;;;;;;9.02;5.07;;;18.00;90.80;;;;;;5025994;28;20025;-72
2022/08/19 01:58:00;;;;;;;9.90;5.05;;;18.00;90.90;;;;;;5038217;28;20344;-72
2022/08/19 02:00:29;;;;;;;11.52;5.72;;;18.00;90.90;;;;;;5028933;28;20163;-72
2022/08/19 02:02:55;;;;;;;7.72;5.07;;;18.00;90.90;;;;;;5035735;28;20090;-71
2022/08/19 02:05:21;;;;;;;10.13;5.30;;;18.00;90.70;;;;;;5030719;28;20108;-71
2022/08/19 02:07:47;;;;;;;8.88;4.80;;;18.00;90.90;;;;;;5031470;28;20464;-71
2022/08/19 02:10:16;;;;;;;8.32;4.82;;;17.90;91.10;;;;;;5027060;28;20037;-72
2022/08/19 02:12:42;;;;;;;8.38;4.70;;;17.90;91.30;;;;;;5031167;28;20017;-72
2022/08/19 02:15:09;;;;;;;8.75;5.35;;;17.90;91.20;;;;;;5022915;28;20040;-71
2022/08/19 02:17:34;;;;;;;8.50;4.97;;;17.90;91.20;;;;;;5043085;28;20485;-71
2022/08/19 02:20:01;;;;;;;11.30;5.07;;;18.00;91.20;;;;;;5029872;28;20069;-72
2022/08/19 02:22:26;;;;;;;10.40;4.95;;;17.80;91.30;;;;;;5029573;28;20026;-73
2022/08/19 02:24:53;;;;;;;8.80;5.07;;;17.90;91.40;;;;;;5021379;28;20196;-72
2022/08/19 02:27:19;;;;;;;9.35;5.07;;;17.80;91.40;;;;;;5032656;28;20040;-71
2022/08/19 02:29:46;;;;;;;7.82;4.85;;;17.90;91.50;;;;;;5026628;28;20030;-71
2022/08/19 02:32:13;;;;;;;9.27;5.50;;;17.80;91.50;;;;;;5031217;28;20362;-72
2022/08/19 02:34:39;;;;;;;12.35;5.00;;;17.80;91.80;;;;;;5033903;28;20321;-71
2022/08/19 02:37:04;;;;;;;7.32;4.72;;;17.80;91.60;;;;;;5037899;28;20037;-73
2022/08/19 02:39:30;;;;;;;7.22;4.80;;;17.70;91.80;;;;;;5039699;28;20029;-71
2022/08/19 02:41:56;;;;;;;10.25;5.47;;;17.80;91.80;;;;;;5038816;28;20402;-72
2022/08/19 02:44:21;;;;;;;8.27;4.65;;;17.80;91.80;;;;;;5041154;28;20025;-71
2022/08/19 02:46:47;;;;;;;8.43;5.03;;;17.80;91.80;;;;;;5032174;28;20033;-72
2022/08/19 02:49:16;;;;;;;8.93;5.38;;;17.80;91.80;;;;;;5032091;28;20061;-73
2022/08/19 02:51:43;;;;;;;8.18;5.32;;;17.80;91.80;;;;;;5031721;28;20017;-71
2022/08/19 02:54:12;;;;;;;9.05;5.38;;;17.80;91.70;;;;;;5030757;28;20114;-72
2022/08/19 02:56:39;;;;;;;9.50;5.40;;;17.80;91.90;;;;;;5031987;28;20028;-71
2022/08/19 02:59:11;;;;;;;10.50;4.97;;;17.70;92.00;;;;;;5041956;28;20025;-72
2022/08/19 03:01:38;;;;;;;8.70;5.65;;;17.70;92.00;;;;;;5036993;28;20025;-72
2022/08/19 03:04:05;;;;;;;9.00;4.97;;;17.80;91.90;;;;;;5023985;28;20029;-73
2022/08/19 03:06:32;;;;;;;9.68;5.38;;;17.80;91.80;;;;;;5042481;28;20029;-71
2022/08/19 03:08:57;;;;;;;10.02;5.55;;;17.80;91.80;;;;;;5030676;28;20080;-71
2022/08/19 03:11:26;;;;;;;8.85;5.28;;;17.80;91.70;;;;;;5042927;28;20060;-71
2022/08/19 03:13:54;;;;;;;10.45;5.78;;;17.80;91.90;;;;;;5030709;28;20059;-71
2022/08/19 03:16:21;;;;;;;9.60;4.95;;;17.80;92.00;;;;;;5029013;28;20461;-72
2022/08/19 03:18:46;;;;;;;9.70;5.45;;;17.80;91.80;;;;;;5040687;28;20052;-71
2022/08/19 03:21:20;;;;;;;8.80;5.00;;;17.80;91.90;;;;;;5035348;28;20029;-75
2022/08/19 03:23:46;;;;;;;9.52;5.60;;;17.90;91.80;;;;;;5025931;28;20025;-71
2022/08/19 03:26:14;;;;;;;10.73;5.32;;;17.80;91.70;;;;;;5038717;28;20476;-74
2022/08/19 03:28:39;;;;;;;9.98;5.05;;;17.90;91.80;;;;;;5036998;28;20329;-71
2022/08/19 03:31:09;;;;;;;8.35;5.28;;;17.90;91.70;;;;;;5037579;28;20021;-72
2022/08/19 03:33:36;;;;;;;13.93;6.07;;;17.90;91.70;;;;;;5033752;28;20029;-72
2022/08/19 03:36:11;;;;;;;12.45;5.70;;;17.90;91.70;;;;;;5033485;28;20018;-71
2022/08/19 03:38:48;;;;;;;10.50;5.82;;;17.90;91.70;;;;;;5039366;28;20120;-71
2022/08/19 03:41:19;;;;;;;8.85;6.05;;;17.90;91.70;;;;;;5026278;28;20033;-71
2022/08/19 03:43:48;;;;;;;11.57;5.45;;;17.90;91.80;;;;;;5015637;28;20030;-71
2022/08/19 03:46:22;;;;;;;9.60;5.28;;;17.90;91.70;;;;;;5013937;28;20021;-71
2022/08/19 03:48:53;;;;;;;11.45;5.80;;;17.90;91.70;;;;;;5014879;28;20025;-71
2022/08/19 03:51:32;;;;;;;11.77;5.78;;;17.90;91.80;;;;;;5018185;28;20030;-71
2022/08/19 03:54:00;;;;;;;11.02;6.00;;;17.80;92.00;;;;;;5015612;28;20033;-71
2022/08/19 03:56:27;;;;;;;14.55;7.00;;;17.80;92.20;;;;;;5034602;28;20040;-72
2022/08/19 03:58:54;;;;;;;12.70;6.13;;;17.70;92.40;;;;;;5045247;28;20029;-72
2022/08/19 04:01:23;;;;;;;16.02;7.00;;;17.60;92.80;;;;;;5039943;28;20055;-72
2022/08/19 04:03:48;;;;;;;16.27;7.53;;;17.70;92.80;;;;;;5042195;28;20103;-71
2022/08/19 04:06:22;;;;;;;13.18;6.72;;;17.60;93.10;;;;;;5016079;28;20109;-72
2022/08/19 04:08:53;;;;;;;8.70;6.10;;;17.60;92.90;;;;;;5038526;28;20064;-71
2022/08/19 04:11:23;;;;;;;;;;;17.50;93.00;;;;;;5036699;28;20033;-72
2022/08/19 04:13:51;;;;;;;12.27;6.30;;;17.50;93.40;;;;;;5031695;28;19904;-71
2022/08/19 04:16:17;;;;;;;15.38;6.60;;;17.50;93.60;;;;;;5033295;28;20017;-71
2022/08/19 04:18:43;;;;;;;12.77;6.40;;;17.40;93.70;;;;;;5038389;28;20024;-72
2022/08/19 04:21:20;;;;;;;15.63;7.32;;;17.40;93.80;;;;;;5033786;28;20392;-72
2022/08/19 04:23:46;;;;;;;12.35;6.47;;;17.30;93.90;;;;;;5024361;28;20030;-72
2022/08/19 04:26:18;;;;;;;14.20;7.47;;;17.40;94.20;;;;;;5030194;28;20366;-74
2022/08/19 04:28:44;;;;;;;11.55;7.10;;;17.40;94.30;;;;;;5029289;28;20025;-73
2022/08/19 04:31:15;;;;;;;12.15;7.10;;;17.40;94.30;;;;;;5042801;28;20030;-73
2022/08/19 04:33:41;;;;;;;11.48;6.88;;;17.40;94.00;;;;;;5034358;28;20437;-73
2022/08/19 04:36:07;;;;;;;11.73;7.38;;;17.40;94.10;;;;;;5030401;28;20022;-73
2022/08/19 04:38:33;;;;;;;15.20;6.63;;;17.30;94.20;;;;;;5025624;28;20420;-73
2022/08/19 04:43:47;;;;;;;12.13;6.25;;;17.40;94.00;;;;;;5030821;28;20080;-73
2022/08/19 04:46:13;;;;;;;11.88;6.47;;;17.40;94.00;;;;;;5033951;28;20112;-73
2022/08/19 04:48:39;;;;;;;12.75;6.63;;;17.40;93.90;;;;;;5042718;28;20088;-73
2022/08/19 04:51:10;;;;;;;10.30;6.22;;;17.40;93.80;;;;;;5046671;28;20028;-73
2022/08/19 04:53:37;;;;;;;12.30;6.00;;;17.40;93.90;;;;;;5030124;28;20143;-73
2022/08/19 04:56:15;;;;;;;11.30;6.28;;;17.50;93.70;;;;;;5038303;28;20365;-73
2022/08/19 04:58:43;;;;;;;14.15;5.97;;;17.50;93.60;;;;;;5020897;28;20159;-73
2022/08/19 05:01:12;;;;;;;9.13;5.82;;;17.50;93.40;;;;;;5022065;28;20051;-73
2022/08/19 05:03:39;;;;;;;8.25;5.82;;;17.50;93.20;;;;;;5030163;28;20026;-73
2022/08/19 05:06:10;;;;;;;11.50;5.85;;;17.50;93.20;;;;;;5031072;28;20123;-73
2022/08/19 05:08:36;;;;;;;;;;;17.50;93.20;;;;;;5040530;28;20053;-73
2022/08/19 05:11:09;;;;;;;7.75;5.03;;;17.50;92.80;;;;;;5038451;28;19952;-73
2022/08/19 05:13:34;;;;;;;9.27;5.28;;;17.60;92.70;;;;;;5035414;28;20034;-73
2022/08/19 05:16:00;;;;;;;12.07;5.95;;;17.60;92.90;;;;;;5029426;28;20100;-73
2022/08/19 05:23:57;;;;;;;9.45;5.72;;;17.70;92.40;;;;;;5032235;28;20039;-73
2022/08/19 05:26:25;;;;;;;10.50;5.55;;;17.70;92.20;;;;;;5028046;28;20026;-73
2022/08/19 05:28:51;;;;;;;8.15;5.35;;;17.80;91.70;;;;;;5043220;28;20056;-73
2022/08/19 05:31:17;;;;;;;9.32;5.32;;;17.80;91.80;;;;;;5027337;28;20029;-73
2022/08/19 05:33:42;;;;;;;10.95;5.72;;;17.80;91.60;;;;;;5036185;28;20117;-73
2022/08/19 05:36:08;;;;;;;6.88;5.05;;;17.70;91.80;;;;;;5025166;28;20033;-73
2022/08/19 05:38:35;;;;;;;11.77;4.90;;;17.70;91.80;;;;;;5028759;28;20132;-73
2022/08/19 05:41:11;;;;;;;7.25;5.20;;;17.70;92.00;;;;;;5035152;28;20037;-73
2022/08/19 05:43:37;;;;;;;9.65;5.85;;;17.70;92.20;;;;;;5030948;28;20042;-73
2022/08/19 05:46:05;;;;;;;12.77;5.78;;;17.90;91.90;;;;;;5028199;22;20127;-80
2022/08/19 05:48:35;;;;;;;7.90;5.30;;;17.80;91.90;;;;;;5009310;28;20022;-80
2022/08/19 05:51:06;;;;;;;10.73;6.38;;;17.90;91.80;;;;;;5009806;28;20473;-81
2022/08/19 05:53:33;;;;;;;10.95;6.45;;;18.00;91.80;;;;;;5014274;28;20095;-81
2022/08/19 05:56:07;;;;;;;13.82;6.95;;;18.00;91.50;;;;;;5026863;28;20029;-81
2022/08/19 05:58:34;;;;;;;12.93;7.00;;;17.80;91.60;;;;;;5025179;28;20044;-81
2022/08/19 06:01:04;;;;;;;11.45;6.88;;;17.80;91.50;;;;;;5026942;28;20156;-81
2022/08/19 06:03:31;;;;;;;10.50;6.22;;;18.00;91.80;;;;;;5027323;28;20025;-82
2022/08/19 06:05:59;;;;;;;12.50;6.53;;;18.00;91.50;;;;;;5035029;28;20381;-81
2022/08/19 06:08:25;;;;;;;9.27;6.13;;;17.80;91.50;;;;;;5028805;28;20064;-81
2022/08/19 06:10:50;;;;;;;12.65;6.32;;;17.80;91.70;;;;;;5025044;28;20030;-81
2022/08/19 06:13:17;;;;;;;10.77;6.10;;;17.90;92.10;;;;;;5030881;28;20052;-81
2022/08/19 06:15:43;;;;;;;10.93;6.50;;;18.00;91.90;;;;;;5030366;28;20529;-80
2022/08/19 06:18:09;;;;;;;10.20;5.57;;;17.90;91.80;;;;;;5033255;28;20103;-82
2022/08/19 06:20:34;;;;;;;9.90;6.45;;;17.90;91.80;;;;;;5020444;28;20120;-81
2022/08/19 06:23:00;;;;;;;11.68;6.80;;;17.90;91.80;;;;;;5026605;28;20040;-80
2022/08/19 06:25:26;;;;;;;10.50;6.15;;;17.80;92.00;;;;;;5030579;28;21608;-80
2022/08/19 06:27:51;;;;;;;12.75;7.07;;;17.80;92.10;;;;;;5025413;28;20026;-81
2022/08/19 06:30:17;;;;;;;10.07;7.30;;;17.90;92.10;;;;;;5020762;28;21486;-80
2022/08/19 06:32:42;;;;;;;15.93;8.60;;;18.00;92.00;;;;;;5032031;28;20025;-81
2022/08/19 06:35:08;;;;;;;15.43;8.73;;;17.90;92.10;;;;;;5030033;28;20128;-80
2022/08/19 06:37:34;;;;;;;14.60;8.77;;;18.00;91.90;;;;;;5027047;28;20038;-82
2022/08/19 06:39:59;;;;;;;15.45;9.38;;;18.00;92.00;;;;;;5049544;28;20037;-80
2022/08/19 06:42:25;;;;;;;13.93;8.85;;;18.00;92.00;;;;;;5027011;28;20492;-80
2022/08/19 06:44:50;;;;;;;12.98;9.40;;;18.00;92.00;;;;;;5027472;28;20060;-81
2022/08/19 06:47:19;;;;;;;14.90;9.80;;;18.00;91.70;;;;;;5032345;28;20562;-80
2022/08/19 06:49:45;;;;;;;14.68;9.50;;;18.10;91.70;;;;;;5030024;28;20026;-81
2022/08/19 06:52:15;;;;;;;19.73;9.75;;;18.10;91.80;;;;;;5029336;28;20164;-82
2022/08/19 06:54:42;;;;;;;19.17;9.65;;;18.00;91.30;;;;;;5031327;28;20029;-81
2022/08/19 06:57:13;;;;;;;14.13;9.40;;;18.00;91.60;;;;;;5022849;28;20046;-82
2022/08/19 06:59:39;;;;;;;;;;;17.90;91.70;;;;;;5031769;28;20040;-80
2022/08/19 07:02:06;;;;;;;15.88;10.43;;;17.90;91.80;;;;;;5032260;28;19921;-81
2022/08/19 07:04:33;;;;;;;16.80;10.13;;;17.80;91.80;;;;;;5032448;28;20025;-80
2022/08/19 07:07:07;;;;;;;15.38;10.15;;;17.80;91.70;;;;;;5032064;28;20064;-81
2022/08/19 07:09:32;;;;;;;19.50;10.40;;;17.70;91.90;;;;;;5031180;28;20034;-80
2022/08/19 07:11:58;;;;;;;20.25;10.23;;;17.80;92.20;;;;;;5027626;28;20042;-81
2022/08/19 07:14:26;;;;;;;15.68;9.88;;;17.80;92.20;;;;;;5029355;28;20030;-83
2022/08/19 07:16:54;;;;;;;22.38;11.40;;;17.70;92.60;;;;;;5026787;28;20400;-82
2022/08/19 07:19:21;;;;;;;18.35;10.40;;;17.80;92.70;;;;;;5031758;28;20373;-80
2022/08/19 07:21:52;;;;;;;18.45;9.98;;;17.80;92.70;;;;;;5033180;28;20018;-82
2022/08/19 07:24:18;;;;;;;;;;;17.80;92.90;;;;;;5031837;28;20041;-80
2022/08/19 07:26:44;;;;;;;18.60;10.45;;;17.80;93.00;;;;;;5028112;28;19917;-81
2022/08/19 07:29:11;;;;;;;17.20;9.95;;;17.60;93.10;;;;;;5026005;28;20152;-83
2022/08/19 07:31:37;;;;;;;17.67;10.10;;;17.70;93.50;;;;;;5025653;28;20038;-80
2022/08/19 07:34:10;;;;;;;17.65;9.70;;;17.70;93.60;;;;;;5031481;28;20365;-80
2022/08/19 07:36:38;;;;;;;17.83;10.38;;;17.70;93.80;;;;;;5032008;28;20026;-80
2022/08/19 07:39:09;;;;;;;14.43;10.55;;;17.70;93.90;;;;;;5027622;28;20037;-81
2022/08/19 07:41:36;;;;;;;16.27;10.27;;;17.60;94.00;;;;;;5031040;28;20065;-80
2022/08/19 07:44:04;;;;;;;13.85;9.85;;;17.60;94.30;;;;;;5027652;28;20021;-81
2022/08/19 07:46:39;;;;;;;16.73;9.55;;;17.50;94.50;;;;;;5029905;28;20037;-82
2022/08/19 07:49:06;;;;;;;15.73;10.43;;;17.50;94.70;;;;;;5030673;28;20049;-80
2022/08/19 07:51:33;;;;;;;16.48;10.90;;;17.60;95.00;;;;;;5029432;28;20056;-80
2022/08/19 07:53:58;;;;;;;19.48;10.52;;;17.70;94.90;;;;;;5023233;28;20034;-83
2022/08/19 07:56:24;;;;;;;16.23;10.60;;;17.60;94.80;;;;;;5022551;28;20079;-80
2022/08/19 07:58:52;;;;;;;16.02;10.70;;;17.60;95.20;;;;;;5021664;28;20068;-81
2022/08/19 08:01:24;;;;;;;21.23;11.60;;;17.50;95.00;;;;;;5021932;28;20422;-82
2022/08/19 08:09:26;;;;;;;18.98;11.73;;;17.70;95.40;;;;;;5022512;28;20145;-81
2022/08/19 08:12:00;;;;;;;19.17;12.68;;;17.80;95.70;;;;;;5019286;28;20492;-82
2022/08/19 08:14:30;;;;;;;21.55;12.10;;;17.80;95.50;;;;;;5023845;28;20033;-80
2022/08/19 08:16:56;;;;;;;22.60;13.55;;;17.80;95.40;;;;;;5021065;28;20433;-81
2022/08/19 08:19:24;;;;;;;20.45;12.70;;;18.00;95.50;;;;;;5025186;28;20076;-80
2022/08/19 08:21:50;;;;;;;20.25;12.82;;;18.00;94.40;;;;;;5022227;28;20113;-82
2022/08/19 08:24:16;;;;;;;15.80;11.38;;;18.10;94.40;;;;;;5023395;28;20029;-80
2022/08/19 08:26:43;;;;;;;18.33;12.68;;;18.10;93.90;;;;;;5027971;28;20477;-81
2022/08/19 08:29:12;;;;;;;18.08;11.32;;;18.00;93.90;;;;;;5029913;28;20551;-81
2022/08/19 08:31:40;;;;;;;16.15;11.00;;;18.10;94.00;;;;;;5027662;28;20461;-80
2022/08/19 08:34:06;;;;;;;16.63;11.80;;;18.20;94.00;;;;;;5025290;28;20029;-81
2022/08/19 08:36:33;;;;;;;15.13;9.90;;;18.30;93.90;;;;;;5021836;28;20120;-81
2022/08/19 08:38:59;;;;;;;17.20;10.70;;;18.10;93.00;;;;;;5031306;28;20033;-81
2022/08/19 08:42:00;;;;;;;19.33;11.20;;;18.20;93.30;;;;;;5032215;28;20022;-81
2022/08/19 08:44:46;;;;;;;19.60;11.27;;;18.30;93.50;;;;;;5028169;28;20125;-81
2022/08/19 08:47:17;;;;;;;19.08;10.43;;;18.30;92.80;;;;;;5028795;28;20030;-80
2022/08/19 08:50:06;;;;;;;15.77;10.43;;;18.50;92.80;;;;;;5030139;28;20026;-80
2022/08/19 08:52:42;;;;;;;14.93;10.18;;;18.50;92.60;;;;;;5031212;28;20407;-80
2022/08/19 08:55:12;;;;;;;17.38;10.50;;;18.50;92.60;;;;;;5032404;28;20029;-81
2022/08/19 08:57:54;;;;;;;17.52;10.25;;;18.50;92.80;;;;;;5028791;28;20045;-82
2022/08/19 09:00:26;;;;;;;17.80;10.77;;;18.50;92.50;;;;;;5029166;28;20469;-81
2022/08/19 09:02:52;;;;;;;14.82;9.82;;;18.40;92.70;;;;;;5030863;28;20515;-81
2022/08/19 09:05:21;;;;;;;17.95;10.85;;;18.40;92.80;;;;;;5023976;28;20120;-80
2022/08/19 09:08:06;;;;;;;19.95;10.77;;;18.50;93.00;;;;;;5028324;28;20037;-81
2022/08/19 09:10:39;;;;;;;16.77;10.75;;;18.50;92.80;;;;;;5025087;28;20037;-81
2022/08/19 09:13:30;;;;;;;14.63;10.00;;;18.60;92.60;;;;;;5033777;28;20156;-81
2022/08/19 09:16:20;;;;;;;17.33;11.43;;;18.70;92.20;;;;;;5025598;28;20124;-81
2022/08/19 09:18:54;;;;;;;15.30;10.50;;;18.80;91.80;;;;;;5030596;28;20040;-81
2022/08/19 09:21:25;;;;;;;16.58;10.40;;;18.70;91.50;;;;;;5030177;28;20393;-80
2022/08/19 09:23:51;;;;;;;15.18;9.63;;;18.80;91.80;;;;;;5031520;28;20021;-80
2022/08/19 09:26:20;;;;;;;15.80;9.60;;;18.90;91.60;;;;;;5031342;28;20029;-82
2022/08/19 09:28:47;;;;;;;12.68;9.10;;;19.10;91.50;;;;;;5035686;28;20025;-81
2022/08/19 09:31:15;;;;;;;12.75;9.43;;;19.20;90.70;;;;;;5032025;28;20029;-81
2022/08/19 09:33:43;;;;;;;14.68;9.48;;;19.40;90.30;;;;;;5030417;28;20055;-82
2022/08/19 09:36:12;;;;;;;11.88;8.15;;;19.50;89.60;;;;;;5031744;28;20025;-81
2022/08/19 09:38:41;;;;;;;15.05;9.20;;;19.50;88.70;;;;;;5023513;28;20377;-81
2022/08/19 09:41:11;;;;;;;12.75;8.25;;;19.60;89.20;;;;;;5030586;28;20348;-81
2022/08/19 09:43:36;;;;;;;14.00;7.80;;;19.80;89.20;;;;;;5031566;28;20017;-82
2022/08/19 09:46:06;;;;;;;13.82;8.27;;;19.80;88.40;;;;;;5024342;28;20041;-82
2022/08/19 09:48:35;;;;;;;12.68;7.75;;;19.80;88.40;;;;;;5025529;28;20018;-81
2022/08/19 09:51:22;;;;;;;11.75;8.75;;;19.90;87.60;;;;;;5021834;28;20166;-82
2022/08/19 09:53:53;;;;;;;10.82;7.22;;;19.90;87.50;;;;;;5022943;28;20029;-81
2022/08/19 09:56:20;;;;;;;12.50;7.88;;;20.00;87.40;;;;;;5017781;28;20112;-81
2022/08/19 09:58:47;;;;;;;11.18;7.03;;;19.90;87.40;;;;;;5020271;28;20040;-81
2022/08/19 10:01:19;;;;;;;11.30;7.50;;;20.00;86.90;;;;;;5019854;28;20572;-82
2022/08/19 10:03:49;;;;;;;12.25;7.68;;;20.20;87.00;;;;;;5026078;28;20121;-81
2022/08/19 10:06:16;;;;;;;13.20;8.77;;;20.40;86.30;;;;;;5018262;28;20021;-81
2022/08/19 10:08:41;;;;;;;11.57;7.65;;;20.50;85.10;;;;;;5017493;28;20108;-81
2022/08/19 10:11:09;;;;;;;9.77;7.18;;;20.80;85.70;;;;;;5022886;28;20021;-81
2022/08/19 10:13:35;;;;;;;12.05;7.80;;;20.80;84.80;;;;;;5018139;28;20029;-81
2022/08/19 10:16:18;;;;;;;14.35;7.82;;;20.80;84.40;;;;;;5021640;28;20037;-81
2022/08/19 10:18:44;;;;;;;11.88;7.63;;;20.90;84.30;;;;;;5020917;28;20018;-80
2022/08/19 10:21:11;;;;;;;12.65;7.95;;;21.00;83.80;;;;;;5025008;28;20034;-82
2022/08/19 10:23:39;;;;;;;11.98;7.53;;;21.00;84.30;;;;;;5027710;28;20029;-80
2022/08/19 10:26:06;;;;;;;11.18;7.47;;;21.20;83.30;;;;;;5031123;28;20049;-80
2022/08/19 10:28:36;;;;;;;9.23;6.72;;;21.00;83.70;;;;;;5028527;28;20385;-80
2022/08/19 10:31:07;;;;;;;9.73;6.45;;;21.30;83.10;;;;;;5029011;28;20026;-80
2022/08/19 10:33:34;;;;;;;9.93;7.40;;;21.40;83.00;;;;;;5031671;28;20060;-83
2022/08/19 10:36:07;;;;;;;10.25;6.93;;;21.50;83.20;;;;;;5028333;28;20489;-80
2022/08/19 10:38:34;;;;;;;13.07;7.15;;;21.50;81.70;;;;;;5029108;28;20112;-80
2022/08/19 10:41:17;;;;;;;9.68;6.55;;;21.50;82.20;;;;;;5028057;28;20223;-80
2022/08/19 10:43:44;;;;;;;12.98;7.35;;;21.60;81.80;;;;;;5039510;28;20026;-80
2022/08/19 10:46:13;;;;;;;11.45;7.32;;;21.50;81.10;;;;;;5029263;28;20105;-80
2022/08/19 10:48:40;;;;;;;10.82;7.28;;;21.40;82.20;;;;;;5030249;28;20032;-80
2022/08/19 10:53:51;;;;;;;9.48;6.82;;;21.50;81.80;;;;;;5029306;28;20040;-80
2022/08/19 10:59:03;;;;;;;10.48;8.07;;;21.60;80.70;;;;;;5027208;28;20037;-81
2022/08/19 11:01:30;;;;;;;9.65;7.30;;;21.70;80.80;;;;;;5030651;28;20021;-80
2022/08/19 11:03:57;;;;;;;13.13;7.25;;;22.10;79.90;;;;;;5034106;28;20037;-80
2022/08/19 11:06:24;;;;;;;10.65;7.35;;;22.50;79.20;;;;;;5033046;28;20492;-80
2022/08/19 11:08:50;;;;;;;10.43;7.57;;;22.70;77.50;;;;;;5034689;28;20013;-80
2022/08/19 11:11:16;;;;;;;11.13;8.00;;;22.90;77.60;;;;;;5034608;28;20036;-80
2022/08/19 11:13:43;;;;;;;13.18;7.25;;;22.90;76.80;;;;;;5031700;28;20137;-80
2022/08/19 11:16:13;;;;;;;11.98;6.63;;;23.20;76.60;;;;;;5030821;28;20089;-80
2022/08/19 11:18:42;;;;;;;9.68;7.05;;;23.50;76.30;;;;;;5031459;28;20026;-82
2022/08/19 11:21:11;;;;;;;13.98;7.72;;;23.50;74.90;;;;;;5030231;28;20045;-80
2022/08/19 11:23:37;;;;;;;9.23;7.18;;;23.90;74.70;;;;;;5024954;28;20080;-81
2022/08/19 11:26:02;;;;;;;10.15;6.47;;;24.10;73.80;;;;;;5031433;28;20108;-80
2022/08/19 11:28:28;;;;;;;8.35;6.45;;;24.20;72.80;;;;;;5029333;28;20037;-81
2022/08/19 11:30:53;;;;;;;11.65;6.32;;;24.30;73.40;;;;;;5043469;28;20625;-84
2022/08/19 11:33:19;;;;;;;8.02;6.32;;;24.20;72.20;;;;;;5028971;28;20055;-81
2022/08/19 11:35:44;;;;;;;7.88;5.53;;;24.10;73.00;;;;;;5033378;28;20104;-80
2022/08/19 11:38:10;;;;;;;10.05;7.07;;;24.00;73.70;;;;;;5032863;28;20044;-80
2022/08/19 11:40:37;;;;;;;10.40;7.15;;;23.40;74.60;;;;;;5029611;28;20025;-80
2022/08/19 11:43:03;;;;;;;10.48;7.00;;;23.30;75.70;;;;;;5029991;28;20108;-80
2022/08/19 11:45:29;;;;;;;9.77;6.80;;;23.10;77.00;;;;;;5042336;28;20060;-80
2022/08/19 11:47:55;;;;;;;9.13;6.18;;;22.70;78.10;;;;;;5033454;28;20453;-80
2022/08/19 11:50:23;;;;;;;9.55;6.75;;;22.90;78.00;;;;;;5028091;28;20033;-80
2022/08/19 11:52:49;;;;;;;11.30;6.57;;;22.90;78.00;;;;;;5031336;28;20484;-80
2022/08/19 11:55:15;;;;;;;10.05;6.40;;;22.80;78.00;;;;;;5029294;28;20044;-80
2022/08/19 11:57:41;;;;;;;11.63;6.47;;;22.90;77.40;;;;;;5030111;28;20108;-80
2022/08/19 12:00:09;;;;;;;8.23;5.60;;;22.90;77.30;;;;;;5028051;28;20388;-82
2022/08/19 12:02:34;;;;;;;9.40;7.10;;;23.30;76.90;;;;;;5034505;28;20022;-80
2022/08/19 12:05:02;;;;;;;9.02;5.95;;;23.70;74.70;;;;;;5032428;28;20034;-83
2022/08/19 12:07:28;;;;;;;10.40;6.18;;;23.90;74.50;;;;;;5031158;28;20171;-80
2022/08/19 12:09:54;;;;;;;8.70;5.93;;;24.20;73.20;;;;;;5030439;28;20076;-81
2022/08/19 12:12:19;;;;;;;10.57;6.80;;;24.20;73.60;;;;;;5029045;28;20033;-81
2022/08/19 12:14:46;;;;;;;10.40;6.60;;;24.20;72.70;;;;;;5026688;28;20105;-80
2022/08/19 12:17:13;;;;;;;9.32;6.63;;;24.20;72.70;;;;;;5032059;28;20159;-81
2022/08/19 12:19:39;;;;;;;9.25;6.60;;;24.40;72.90;;;;;;5030628;28;20112;-80
2022/08/19 12:22:05;;;;;;;8.65;5.95;;;24.20;72.90;;;;;;5030534;28;20511;-81
2022/08/19 12:24:32;;;;;;;9.23;6.40;;;24.90;73.10;;;;;;5027184;28;20036;-81
2022/08/19 12:27:01;;;;;;;8.52;5.20;;;25.00;69.20;;;;;;5027243;28;20026;-81
2022/08/19 12:29:29;;;;;;;7.32;5.28;;;25.30;69.80;;;;;;5027835;28;20167;-80
2022/08/19 12:32:00;;;;;;;7.78;5.20;;;25.50;67.30;;;;;;5025586;28;20033;-80
2022/08/19 12:34:29;;;;;;;9.57;5.25;;;25.90;66.60;;;;;;5031967;28;20033;-80
2022/08/19 12:37:00;;;;;;;6.63;4.90;;;26.00;65.90;;;;;;5030477;28;20029;-81
2022/08/19 12:39:26;;;;;;;7.43;5.18;;;26.00;66.30;;;;;;5027441;28;20421;-81
2022/08/19 12:41:52;;;;;;;8.45;5.70;;;25.40;66.90;;;;;;5031519;28;20025;-81
2022/08/19 12:44:17;;;;;;;9.02;5.90;;;24.80;69.10;;;;;;5031801;28;20029;-81
2022/08/19 12:46:43;;;;;;;8.45;5.95;;;25.00;69.40;;;;;;5027776;28;21319;-80
2022/08/19 12:49:09;;;;;;;10.32;6.45;;;24.70;68.80;;;;;;5031612;28;20026;-80
2022/08/19 12:51:35;;;;;;;8.10;5.22;;;24.50;69.60;;;;;;5031349;28;20017;-79
2022/08/19 12:54:03;;;;;;;9.45;6.20;;;24.00;72.00;;;;;;5030929;28;20105;-79
2022/08/19 12:56:28;;;;;;;8.25;4.88;;;24.00;72.30;;;;;;5026576;28;20022;-79
2022/08/19 12:58:54;;;;;;;7.22;5.45;;;24.20;72.30;;;;;;5027911;28;20496;-81
2022/08/19 13:01:20;;;;;;;8.85;6.00;;;24.40;71.70;;;;;;5029146;28;20099;-79
2022/08/19 13:03:46;;;;;;;7.65;5.65;;;24.50;70.70;;;;;;5029494;28;20034;-79